createdAt,value
2022-10-10T00:01:44.757Z,101445.22
2022-10-10T00:04:12.765Z,101441.69
2022-10-10T00:06:40.803Z,101443.41
2022-10-10T00:09:08.768Z,101435.47
2022-10-10T00:11:37.138Z,101436.34
2022-10-10T00:14:05.487Z,101430.13
2022-10-10T00:16:33.506Z,101434.56
2022-10-10T00:19:02.915Z,101430.13
2022-10-10T00:21:30.950Z,101423.06
2022-10-10T00:24:00.623Z,101419.47
2022-10-10T00:26:28.580Z,101423.00
2022-10-10T00:28:56.720Z,101410.66
2022-10-10T00:31:24.824Z,101415.06
2022-10-10T00:33:52.885Z,101412.44
2022-10-10T00:36:22.243Z,101388.59
2022-10-10T00:38:50.226Z,101399.19
2022-10-10T00:41:18.627Z,101405.34
2022-10-10T00:44:02.337Z,101403.59
2022-10-10T00:46:30.313Z,101399.16
2022-10-10T00:48:58.409Z,101396.53
2022-10-10T00:51:27.889Z,101388.56
2022-10-10T00:54:00.821Z,101365.69
2022-10-10T00:56:33.059Z,101389.47
2022-10-10T00:59:05.706Z,101386.84
2022-10-10T01:01:33.859Z,101385.97
2022-10-10T01:04:03.114Z,101375.38
2022-10-10T01:06:33.507Z,101372.75
2022-10-10T01:09:02.070Z,101366.53
2022-10-10T01:11:48.656Z,101370.13
2022-10-10T01:14:29.199Z,101363.91
2022-10-10T01:17:06.093Z,101362.13
2022-10-10T01:20:05.358Z,101360.41
2022-10-10T01:22:46.788Z,101356.84
2022-10-10T01:25:24.943Z,101355.09
2022-10-10T01:27:55.141Z,101353.38
2022-10-10T01:30:25.855Z,101352.50
2022-10-10T01:32:58.096Z,101354.31
2022-10-10T01:35:37.849Z,101346.34
2022-10-10T01:38:23.395Z,101339.28
2022-10-10T01:40:57.338Z,101342.78
2022-10-10T01:43:26.737Z,101335.72
2022-10-10T01:45:56.066Z,101335.75
2022-10-10T01:48:28.691Z,101319.03
2022-10-10T01:51:13.801Z,101336.63
2022-10-10T01:53:48.952Z,101323.41
2022-10-10T01:56:29.305Z,101325.19
2022-10-10T01:59:13.542Z,101319.88
2022-10-10T02:01:49.109Z,101311.03
2022-10-10T02:04:25.023Z,101319.03
2022-10-10T02:06:56.692Z,101319.03
2022-10-10T02:09:30.962Z,101316.38
2022-10-10T02:12:00.716Z,101302.28
2022-10-10T02:14:34.124Z,101315.53
2022-10-10T02:17:05.726Z,101308.47
2022-10-10T02:19:34.112Z,101304.09
2022-10-10T02:22:03.450Z,101304.97
2022-10-10T02:24:31.593Z,101297.00
2022-10-10T02:27:04.933Z,101308.47
2022-10-10T02:29:37.274Z,101304.06
2022-10-10T02:32:11.268Z,101304.94
2022-10-10T02:34:43.989Z,101290.84
2022-10-10T02:37:15.224Z,101282.03
2022-10-10T02:39:47.924Z,101287.31
2022-10-10T02:42:19.045Z,101280.25
2022-10-10T02:44:48.061Z,101270.56
2022-10-10T02:47:17.845Z,101275.84
2022-10-10T02:49:47.896Z,101269.66
2022-10-10T02:52:17.374Z,101268.75
2022-10-10T02:54:45.379Z,101266.13
2022-10-10T02:57:13.623Z,101260.84
2022-10-10T02:59:41.758Z,101262.59
2022-10-10T03:02:09.827Z,101252.00
2022-10-10T03:04:39.561Z,101254.69
2022-10-10T03:07:07.516Z,101247.63
2022-10-10T03:09:35.697Z,101245.84
2022-10-10T03:12:03.882Z,101243.19
2022-10-10T03:14:31.864Z,101241.41
2022-10-10T03:17:00.401Z,101239.63
2022-10-10T03:19:28.365Z,101235.22
2022-10-10T03:21:57.705Z,101235.22
2022-10-10T03:24:25.688Z,101224.63
2022-10-10T03:26:53.642Z,101225.50
2022-10-10T03:29:21.599Z,101222.81
2022-10-10T03:31:49.571Z,101222.81
2022-10-10T03:34:17.766Z,101230.75
2022-10-10T03:36:45.692Z,101229.00
2022-10-10T03:39:15.035Z,101221.03
2022-10-10T03:41:42.972Z,101223.69
2022-10-10T03:44:11.018Z,101217.50
2022-10-10T03:46:39.082Z,101220.19
2022-10-10T03:49:07.041Z,101206.91
2022-10-10T03:51:35.004Z,101209.50
2022-10-10T03:54:02.974Z,101210.44
2022-10-10T03:56:32.370Z,101205.09
2022-10-10T03:59:00.838Z,101201.56
2022-10-10T04:01:30.099Z,101206.84
2022-10-10T04:03:58.060Z,101205.97
2022-10-10T04:06:27.479Z,101202.44
2022-10-10T04:08:55.486Z,101206.00
2022-10-10T04:11:23.437Z,101201.59
2022-10-10T04:13:52.743Z,101201.59
2022-10-10T04:16:20.774Z,101191.03
2022-10-10T04:18:48.904Z,101191.00
2022-10-10T04:21:16.875Z,101181.28
2022-10-10T04:23:44.816Z,101179.50
2022-10-10T04:26:12.794Z,101179.50
2022-10-10T04:28:40.780Z,101178.66
2022-10-10T04:31:10.283Z,101175.13
2022-10-10T04:33:38.241Z,101176.03
2022-10-10T04:36:06.403Z,101167.19
2022-10-10T04:38:34.373Z,101172.50
2022-10-10T04:41:02.762Z,101174.22
2022-10-10T04:43:30.696Z,101160.97
2022-10-10T04:45:59.220Z,101160.97
2022-10-10T04:48:28.668Z,101153.94
2022-10-10T04:50:58.866Z,101160.97
2022-10-10T04:53:27.366Z,101148.59
2022-10-10T04:55:55.603Z,101153.00
2022-10-10T04:58:23.612Z,101151.25
2022-10-10T05:00:52.563Z,101145.09
2022-10-10T05:03:20.906Z,101143.34
2022-10-10T05:05:50.414Z,101146.88
2022-10-10T05:08:19.272Z,101146.00
2022-10-10T05:10:47.832Z,101127.50
2022-10-10T05:13:17.264Z,101145.09
2022-10-10T05:15:45.227Z,101138.88
2022-10-10T05:18:13.229Z,101137.94
2022-10-10T05:20:41.166Z,101129.19
2022-10-10T05:23:10.485Z,101124.75
2022-10-10T05:25:38.466Z,101124.75
2022-10-10T05:28:06.551Z,101132.72
2022-10-10T05:30:34.569Z,101126.53
2022-10-10T05:33:02.661Z,101116.81
2022-10-10T05:35:30.672Z,101125.59
2022-10-10T05:37:58.618Z,101117.69
2022-10-10T05:40:28.112Z,101121.25
2022-10-10T05:42:56.145Z,101119.50
2022-10-10T05:45:24.094Z,101119.50
2022-10-10T05:47:52.101Z,101116.84
2022-10-10T05:50:30.861Z,101113.28
2022-10-10T05:52:58.881Z,101119.50
2022-10-10T05:55:28.622Z,101113.28
2022-10-10T05:57:56.637Z,101106.22
2022-10-10T06:00:24.609Z,101108.88
2022-10-10T06:02:52.910Z,101099.09
2022-10-10T06:05:21.306Z,101100.81
2022-10-10T06:08:10.606Z,101100.81
2022-10-10T06:10:40.553Z,101095.50
2022-10-10T06:13:08.626Z,101095.44
2022-10-10T06:15:36.759Z,101096.28
2022-10-10T06:18:05.489Z,101090.97
2022-10-10T06:20:35.651Z,101096.25
2022-10-10T06:23:03.941Z,101094.41
2022-10-10T06:25:41.903Z,101090.81
2022-10-10T06:28:12.812Z,101096.09
2022-10-10T06:30:41.779Z,101080.28
2022-10-10T06:33:09.947Z,101092.53
2022-10-10T06:35:42.168Z,101093.38
2022-10-10T06:38:10.710Z,101101.25
2022-10-10T06:40:39.222Z,101093.25
2022-10-10T06:43:11.370Z,101087.03
2022-10-10T06:45:42.315Z,101088.81
2022-10-10T06:48:11.197Z,101094.00
2022-10-10T06:50:39.553Z,101094.88
2022-10-10T06:53:08.161Z,101085.97
2022-10-10T06:55:36.190Z,101085.03
2022-10-10T06:58:04.510Z,101077.94
2022-10-10T07:00:32.666Z,101084.06
2022-10-10T07:03:01.979Z,101074.25
2022-10-10T07:05:30.011Z,101077.75
2022-10-10T07:07:58.001Z,101073.28
2022-10-10T07:10:26.040Z,101075.91
2022-10-10T07:12:54.184Z,101080.22
2022-10-10T07:15:22.395Z,101081.91
2022-10-10T07:17:57.732Z,101076.53
2022-10-10T07:20:27.165Z,101065.81
2022-10-10T07:22:55.149Z,101068.34
2022-10-10T07:25:23.230Z,101056.75
2022-10-10T07:27:51.287Z,101053.19
2022-10-10T07:30:19.543Z,101064.66
2022-10-10T07:32:48.069Z,101056.59
2022-10-10T07:35:16.716Z,101056.50
2022-10-10T07:37:46.155Z,101066.16
2022-10-10T07:40:14.178Z,101060.69
2022-10-10T07:42:42.178Z,101061.53
2022-10-10T07:45:12.200Z,101070.28
2022-10-10T07:47:40.611Z,101065.69
2022-10-10T07:50:09.207Z,101060.31
2022-10-10T07:52:37.248Z,101054.00
2022-10-10T07:55:07.958Z,101054.72
2022-10-10T07:57:36.966Z,101052.09
2022-10-10T08:00:06.443Z,101057.16
2022-10-10T08:02:34.449Z,101062.38
2022-10-10T08:05:02.461Z,101048.97
2022-10-10T08:07:30.488Z,101055.97
2022-10-10T08:09:58.600Z,101061.97
2022-10-10T08:12:27.977Z,101055.66
2022-10-10T08:14:55.952Z,101052.81
2022-10-10T08:17:23.954Z,101052.59
2022-10-10T08:19:52.010Z,101035.59
2022-10-10T08:22:20.026Z,101042.50
2022-10-10T08:24:48.029Z,101039.66
2022-10-10T08:27:17.794Z,101042.25
2022-10-10T08:29:47.118Z,101039.38
2022-10-10T08:32:15.292Z,101034.81
2022-10-10T08:34:43.505Z,101032.84
2022-10-10T08:37:11.522Z,101034.53
2022-10-10T08:39:39.531Z,101031.69
2022-10-10T08:42:07.847Z,101030.75
2022-10-10T08:44:41.342Z,101028.94
2022-10-10T08:47:16.735Z,101027.94
2022-10-10T08:49:50.900Z,101025.91
2022-10-10T08:52:31.494Z,101016.00
2022-10-10T08:55:01.540Z,101016.66
2022-10-10T08:57:33.806Z,101012.03
2022-10-10T09:00:07.386Z,101017.28
2022-10-10T09:02:53.799Z,101009.91
2022-10-10T09:05:36.914Z,101000.78
2022-10-10T09:08:26.905Z,100999.75
2022-10-10T09:10:59.745Z,100996.00
2022-10-10T09:13:34.614Z,101003.72
2022-10-10T09:16:05.220Z,100996.31
2022-10-10T09:18:45.104Z,100990.78
2022-10-10T09:21:17.213Z,100995.75
2022-10-10T09:23:50.736Z,100993.84
2022-10-10T09:26:22.798Z,100989.22
2022-10-10T09:28:56.743Z,100989.72
2022-10-10T09:31:30.056Z,100995.78
2022-10-10T09:34:02.591Z,100984.84
2022-10-10T09:36:34.226Z,100983.91
2022-10-10T09:39:05.571Z,100977.53
2022-10-10T09:41:40.003Z,100976.31
2022-10-10T09:44:15.105Z,100963.81
2022-10-10T09:46:43.101Z,100965.41
2022-10-10T09:49:16.277Z,100969.47
2022-10-10T09:51:45.148Z,100966.53
2022-10-10T09:54:15.133Z,100970.75
2022-10-10T09:56:47.085Z,100971.25
2022-10-10T09:59:37.819Z,100967.44
2022-10-10T10:02:18.748Z,100968.97
2022-10-10T10:04:49.654Z,100964.25
2022-10-10T10:07:29.026Z,100968.28
2022-10-10T10:09:59.281Z,100971.53
2022-10-10T10:12:30.545Z,100968.63
2022-10-10T10:15:02.408Z,100971.25
2022-10-10T10:17:30.901Z,100970.38
2022-10-10T10:20:00.310Z,100961.38
2022-10-10T10:22:34.193Z,100958.59
2022-10-10T10:25:31.422Z,100954.88
2022-10-10T10:28:20.455Z,100956.47
2022-10-10T10:30:49.390Z,100943.94
2022-10-10T10:33:31.402Z,100939.13
2022-10-10T10:36:08.897Z,100949.66
2022-10-10T10:38:44.760Z,100941.31
2022-10-10T10:41:22.335Z,100946.22
2022-10-10T10:44:18.299Z,100937.97
2022-10-10T10:46:58.973Z,100931.41
2022-10-10T10:49:34.432Z,100936.22
2022-10-10T10:52:23.763Z,100936.56
2022-10-10T10:55:14.982Z,100938.13
2022-10-10T10:58:37.179Z,100926.22
2022-10-10T11:01:23.546Z,100934.84
2022-10-10T11:05:16.433Z,100936.03
2022-10-10T11:07:17.855Z,100929.88
2022-10-10T11:09:55.052Z,100942.47
2022-10-10T11:12:45.797Z,100934.19
2022-10-10T11:15:19.060Z,100913.84
2022-10-10T11:17:54.822Z,100929.38
2022-10-10T11:20:29.307Z,100915.91
2022-10-10T11:23:08.059Z,100922.44
2022-10-10T11:25:44.393Z,100917.91
2022-10-10T11:28:17.558Z,100918.81
2022-10-10T11:30:50.404Z,100912.78
2022-10-10T11:33:24.689Z,100912.22
2022-10-10T11:35:58.543Z,100913.28
2022-10-10T11:38:32.674Z,100911.50
2022-10-10T11:41:04.802Z,100903.56
2022-10-10T11:43:44.441Z,100902.69
2022-10-10T11:46:26.466Z,100894.72
2022-10-10T11:49:02.088Z,100898.44
2022-10-10T11:51:40.438Z,100900.13
2022-10-10T11:54:21.710Z,100898.13
2022-10-10T11:56:52.291Z,100894.00
2022-10-10T11:59:25.420Z,100898.84
2022-10-10T12:04:37.893Z,100894.56
2022-10-10T12:07:12.601Z,100890.25
2022-10-10T12:09:44.592Z,100889.94
2022-10-10T12:12:16.557Z,100888.22
2022-10-10T12:14:53.853Z,100889.28
2022-10-10T12:17:25.785Z,100888.09
2022-10-10T12:19:55.262Z,100877.69
2022-10-10T12:22:26.083Z,100894.97
2022-10-10T12:25:32.689Z,100902.34
2022-10-10T12:28:07.807Z,100899.44
2022-10-10T12:30:35.818Z,100905.22
2022-10-10T12:33:03.785Z,100892.78
2022-10-10T12:35:41.360Z,100892.19
2022-10-10T12:38:22.350Z,100891.16
2022-10-10T12:41:08.786Z,100888.94
2022-10-10T12:43:50.503Z,100884.19
2022-10-10T12:46:30.943Z,100888.94
2022-10-10T12:49:15.401Z,100885.16
2022-10-10T12:51:45.819Z,100880.13
2022-10-10T12:54:24.413Z,100875.28
2022-10-10T12:57:00.579Z,100876.75
2022-10-10T12:59:28.860Z,100872.81
2022-10-10T13:02:03.447Z,100882.25
2022-10-10T13:04:32.073Z,100875.63
2022-10-10T13:07:03.188Z,100878.34
2022-10-10T13:09:35.956Z,100883.16
2022-10-10T13:12:06.989Z,100889.78
2022-10-10T13:14:41.221Z,100880.50
2022-10-10T13:17:22.577Z,100888.16
2022-10-10T13:19:50.586Z,100878.88
2022-10-10T13:22:21.111Z,100876.41
2022-10-10T13:24:50.348Z,100875.53
2022-10-10T13:27:21.073Z,100880.06
2022-10-10T13:29:49.518Z,100874.97
2022-10-10T13:32:21.019Z,100882.41
2022-10-10T13:34:53.337Z,100875.25
2022-10-10T13:37:23.261Z,100882.53
2022-10-10T13:39:53.467Z,100868.16
2022-10-10T13:42:32.213Z,100876.94
2022-10-10T13:45:02.087Z,100873.13
2022-10-10T13:47:47.683Z,100874.84
2022-10-10T13:50:28.290Z,100885.19
2022-10-10T13:53:25.161Z,100876.34
2022-10-10T13:56:01.541Z,100881.22
2022-10-10T13:58:32.125Z,100880.38
2022-10-10T14:01:02.525Z,100878.63
2022-10-10T14:03:32.569Z,100881.88
2022-10-10T14:06:01.132Z,100879.19
2022-10-10T14:08:34.831Z,100880.84
2022-10-10T14:11:06.306Z,100876.13
2022-10-10T14:13:37.813Z,100885.25
2022-10-10T14:16:22.430Z,100885.72
2022-10-10T14:18:50.895Z,100883.81
2022-10-10T14:21:19.105Z,100888.25
2022-10-10T14:23:48.505Z,100887.97
2022-10-10T14:26:19.038Z,100890.81
2022-10-10T14:28:47.318Z,100887.41
2022-10-10T14:31:15.388Z,100883.56
2022-10-10T14:33:43.348Z,100896.72
2022-10-10T14:36:13.199Z,100885.97
2022-10-10T14:38:41.313Z,100891.69
2022-10-10T14:41:14.027Z,100889.78
2022-10-10T15:16:10.465Z,100889.47
2022-10-10T15:18:53.590Z,100888.59
2022-10-10T15:21:22.269Z,100882.47
2022-10-10T15:23:50.370Z,100885.91
2022-10-10T15:26:18.333Z,100893.38
2022-10-10T15:28:46.411Z,100885.91
2022-10-10T15:31:15.832Z,100893.31
2022-10-10T15:33:43.783Z,100891.78
2022-10-10T15:36:15.811Z,100899.84
2022-10-10T15:38:46.310Z,100902.63
2022-10-10T15:41:15.191Z,100903.56
2022-10-10T15:43:45.314Z,100909.97
2022-10-10T15:46:13.310Z,100914.31
2022-10-10T15:48:42.610Z,100912.50
2022-10-10T15:51:10.760Z,100917.28
2022-10-10T15:53:38.745Z,100911.38
2022-10-10T15:56:11.603Z,100925.34
2022-10-10T15:58:40.260Z,100928.03
2022-10-10T16:01:13.877Z,100938.28
2022-10-10T16:03:44.182Z,100939.31
2022-10-10T16:06:12.535Z,100952.91
2022-10-10T16:08:40.848Z,100958.44
2022-10-10T16:11:10.607Z,100957.88
2022-10-10T16:13:39.289Z,100960.22
2022-10-10T16:16:09.286Z,100977.72
2022-10-10T16:18:40.383Z,100961.13
2022-10-10T16:21:12.475Z,100966.03
2022-10-10T16:23:40.940Z,100984.25
2022-10-10T16:26:11.654Z,100976.53
2022-10-10T16:28:39.705Z,100984.44
2022-10-10T16:31:09.702Z,100990.63
2022-10-10T16:33:39.074Z,100999.19
2022-10-10T16:36:11.484Z,100988.53
2022-10-10T16:38:39.802Z,101004.94
2022-10-10T16:41:23.646Z,101002.63
2022-10-10T16:43:58.652Z,101008.38
2022-10-10T16:46:27.831Z,101011.38
2022-10-10T16:48:58.528Z,101023.34
2022-10-10T16:51:30.095Z,101022.56
2022-10-10T16:54:01.545Z,101027.31
2022-10-10T16:56:30.925Z,101029.25
2022-10-10T16:59:00.039Z,101034.84
2022-10-10T17:01:28.795Z,101039.41
2022-10-10T17:04:00.190Z,101045.88
2022-10-10T17:06:35.304Z,101057.56
2022-10-10T17:09:05.543Z,101052.25
2022-10-10T17:11:34.323Z,101067.47
2022-10-10T17:14:02.419Z,101069.41
2022-10-10T17:17:28.735Z,101071.19
2022-10-10T17:19:19.687Z,101076.63
2022-10-10T17:21:49.051Z,101094.50
2022-10-10T17:24:17.129Z,101082.03
2022-10-10T17:26:45.136Z,101098.09
2022-10-10T17:29:13.954Z,101123.16
2022-10-10T17:31:41.926Z,101145.69
2022-10-10T17:34:10.062Z,101145.59
2022-10-10T17:36:38.064Z,101156.34
2022-10-10T17:39:07.578Z,101160.59
2022-10-10T17:41:36.506Z,101161.69
2022-10-10T17:44:05.756Z,101148.75
2022-10-10T17:46:36.408Z,101154.31
2022-10-10T17:49:05.454Z,101149.94
2022-10-10T17:51:34.639Z,101181.25
2022-10-10T17:54:03.146Z,101169.97
2022-10-10T17:56:33.218Z,101180.69
2022-10-10T17:59:01.965Z,101201.28
2022-10-10T18:01:31.264Z,101206.75
2022-10-10T18:03:59.337Z,101208.59
2022-10-10T18:06:29.025Z,101205.06
2022-10-10T18:08:57.620Z,101211.34
2022-10-10T18:11:27.744Z,101210.47
2022-10-10T18:14:00.351Z,101209.66
2022-10-10T18:16:32.318Z,101219.47
2022-10-10T18:19:00.822Z,101216.03
2022-10-10T18:21:29.147Z,101219.69
2022-10-10T18:23:57.146Z,101225.91
2022-10-10T18:26:27.080Z,101226.94
2022-10-10T18:28:57.452Z,101233.22
2022-10-10T18:31:27.394Z,101240.44
2022-10-10T18:33:55.956Z,101241.41
2022-10-10T18:36:25.906Z,101245.13
2022-10-10T18:38:54.765Z,101248.78
2022-10-10T18:41:25.248Z,101256.84
2022-10-10T18:43:53.247Z,101261.44
2022-10-10T18:46:23.149Z,101264.25
2022-10-10T18:48:54.111Z,101266.06
2022-10-10T18:51:25.136Z,101267.88
2022-10-10T18:53:56.467Z,101278.63
2022-10-10T18:56:25.269Z,101282.22
2022-10-10T18:58:56.219Z,101283.28
2022-10-10T19:01:27.232Z,101285.09
2022-10-10T19:03:56.275Z,101287.84
2022-10-10T19:06:25.624Z,101288.69
2022-10-10T19:08:56.435Z,101290.59
2022-10-10T19:11:26.736Z,101294.16
2022-10-10T19:13:55.514Z,101306.63
2022-10-10T19:16:24.959Z,101312.81
2022-10-10T19:18:57.506Z,101315.53
2022-10-10T19:21:27.209Z,101322.66
2022-10-10T19:23:55.451Z,101322.66
2022-10-10T19:26:23.823Z,101326.19
2022-10-10T19:28:51.983Z,101327.06
2022-10-10T19:31:21.428Z,101332.41
2022-10-10T19:33:53.507Z,101335.09
2022-10-10T19:36:21.484Z,101340.38
2022-10-10T19:38:49.471Z,101349.25
2022-10-10T19:41:18.454Z,101347.47
2022-10-10T19:43:48.936Z,101349.28
2022-10-10T19:46:18.565Z,101358.16
2022-10-10T19:48:46.549Z,101359.03
2022-10-10T19:51:18.535Z,101364.41
2022-10-10T19:53:46.779Z,101369.81
2022-10-10T19:56:16.787Z,101373.41
2022-10-10T19:58:44.830Z,101369.03
2022-10-10T20:01:16.098Z,101372.63
2022-10-10T20:03:44.413Z,101370.84
2022-10-10T20:06:12.845Z,101378.00
2022-10-10T20:08:42.315Z,101387.78
2022-10-10T20:11:10.853Z,101393.09
2022-10-10T20:13:39.167Z,101400.31
2022-10-10T20:16:11.406Z,101402.09
2022-10-10T20:18:42.630Z,101395.91
2022-10-10T20:21:16.633Z,101404.84
2022-10-10T20:23:47.828Z,101418.22
2022-10-10T20:26:18.375Z,101404.16
2022-10-10T20:28:47.415Z,101421.81
2022-10-10T20:31:18.683Z,101429.00
2022-10-10T20:33:47.162Z,101433.50
2022-10-10T20:36:15.811Z,101437.09
2022-10-10T20:38:43.895Z,101446.88
2022-10-10T20:41:13.298Z,101441.59
2022-10-10T20:43:41.249Z,101447.81
2022-10-10T20:46:10.976Z,101447.00
2022-10-10T20:48:39.677Z,101439.97
2022-10-10T20:51:09.312Z,101451.50
2022-10-10T20:53:38.472Z,101451.56
2022-10-10T20:56:07.822Z,101456.91
2022-10-10T20:58:39.006Z,101461.41
2022-10-10T21:01:09.184Z,101454.31
2022-10-10T21:03:37.982Z,101469.47
2022-10-10T21:06:09.157Z,101474.84
2022-10-10T21:08:37.740Z,101486.41
2022-10-10T21:11:08.537Z,101489.06
2022-10-10T21:13:39.792Z,101491.78
2022-10-10T21:16:09.788Z,101489.16
2022-10-10T21:18:37.800Z,101484.72
2022-10-10T21:21:07.267Z,101497.19
2022-10-10T21:23:37.585Z,101495.44
2022-10-10T21:26:06.923Z,101496.31
2022-10-10T21:28:37.353Z,101499.00
2022-10-10T21:31:06.337Z,101495.47
2022-10-10T21:33:35.533Z,101496.41
2022-10-10T21:36:03.942Z,101502.63
2022-10-10T21:38:32.301Z,101502.66
2022-10-10T21:41:05.995Z,101503.53
2022-10-10T21:43:34.774Z,101509.75
2022-10-10T21:46:05.689Z,101513.25
2022-10-10T21:48:34.020Z,101516.78
2022-10-10T21:51:02.699Z,101515.91
2022-10-10T21:53:30.851Z,101519.44
2022-10-10T21:55:59.013Z,101525.63
2022-10-10T21:58:27.132Z,101527.44
2022-10-10T22:00:55.203Z,101523.91
2022-10-10T22:03:24.553Z,101530.16
2022-10-10T22:05:52.535Z,101544.38
2022-10-10T22:08:20.518Z,101541.69
2022-10-10T22:10:48.471Z,101533.75
2022-10-10T22:13:16.441Z,101543.50
2022-10-10T22:15:44.588Z,101548.84
2022-10-10T22:18:12.561Z,101555.09
2022-10-10T22:20:41.887Z,101553.31
2022-10-10T22:23:09.929Z,101556.91
2022-10-10T22:25:37.910Z,101557.81
2022-10-10T22:28:06.527Z,101564.06
2022-10-10T22:30:35.122Z,101564.94
2022-10-10T22:33:03.142Z,101573.00
2022-10-10T22:35:31.233Z,101571.22
2022-10-10T22:38:00.838Z,101578.38
2022-10-10T22:40:29.460Z,101584.59
2022-10-10T22:42:58.789Z,101581.06
2022-10-10T22:45:27.104Z,101588.16
2022-10-10T22:47:55.076Z,101592.59
2022-10-10T22:50:23.030Z,101597.06
2022-10-10T22:52:50.972Z,101598.88
2022-10-10T22:55:20.409Z,101597.94
2022-10-10T22:57:48.908Z,101597.09
2022-10-10T23:00:17.990Z,101590.91
2022-10-10T23:02:46.065Z,101590.06
2022-10-10T23:05:14.107Z,101598.94
2022-10-10T23:07:42.073Z,101602.50
2022-10-10T23:10:10.678Z,101608.72
2022-10-10T23:12:40.090Z,101611.41
2022-10-10T23:15:08.824Z,101611.44
2022-10-10T23:17:37.818Z,101613.16
2022-10-10T23:20:07.011Z,101622.03
2022-10-10T23:22:34.937Z,101627.38
2022-10-10T23:25:02.936Z,101615.00
2022-10-10T23:27:30.877Z,101628.28
2022-10-10T23:30:00.220Z,101629.13
2022-10-10T23:32:29.454Z,101638.91
2022-10-10T23:34:57.430Z,101634.50
2022-10-10T23:37:25.578Z,101634.50
2022-10-10T23:39:53.593Z,101633.63
2022-10-10T23:42:21.644Z,101638.91
2022-10-10T23:44:49.597Z,101639.84
2022-10-10T23:47:18.957Z,101642.47
2022-10-10T23:49:46.924Z,101644.31
2022-10-10T23:52:14.885Z,101648.75
2022-10-10T23:54:43.098Z,101649.59
2022-10-10T23:57:11.078Z,101648.72
2022-10-10T23:59:39.049Z,101653.16
